Hovedside
METAR-TAF:

METAR-TAF

Lufthavner :

Jönköping, Sverige

Jönköping lufthavn

breddegrad: 57-46N, lengdegrad: 014-05E, høyde over havet: 226 m

Gjeldene værobservasjon

Denne rapporten ble laget for 18 minutter siden, klokken 20:20 UTC
Vind 4 kt fra Sørvest
Temperatur 6°C
Luftfuktighet 81%
Trykk 1022 hPa
Sikt 10 km eller mer
ingen skyer under 1500 m og ingen bygeskyer

METAR: ESGJ 262020Z 23004KT CAVOK 06/03 Q1022

Tid: 22:38 (20:38 UTC)

Varsel

Denne rapporten ble laget for 3 timer og 8 minutter siden, klokken 17:30 UTC
Varsel gyldig fra 26. klokken 18 UTC til 27. klokken 01 UTC
Vind 8 kt fra Vest-sørvest
Sikt 10 km eller mer
ingen skyer under 1500 m og ingen bygeskyer

TAF: ESGJ 261730Z 2618/2701 24008KT CAVOK

Værobservasjoner og værvarsel for over 4000 flyplasser (METAR- og TAF-rapporter).

Tilgjengelige stasjoner er representert av de røde og gule prikkene på kartet.

Hold musepekeren over prikken for å se navnet på stasjonen.

Klikk så for å se værobservasjoner og -varsler.

For å forandre kartet kan du klikke på den grønne knappen med svart kryss for å zoome inn, på den grønne knappen med strek for å zoome ut, eller på de grønne pilene for å se tilstøtende kart.


METAR-TAF: